createdAt,value
2019-05-16T00:01:19.384Z,27.50
2019-05-16T00:03:48.982Z,27.05
2019-05-16T00:06:19.724Z,28.55
2019-05-16T00:08:50.283Z,26.27
2019-05-16T00:11:20.801Z,27.82
2019-05-16T00:13:51.282Z,32.03
2019-05-16T00:16:21.966Z,28.07
2019-05-16T00:18:52.534Z,27.95
2019-05-16T00:21:23.163Z,27.40
2019-05-16T00:23:53.728Z,29.20
2019-05-16T00:26:24.374Z,26.20
2019-05-16T00:28:54.969Z,26.80
2019-05-16T00:31:25.539Z,26.25
2019-05-16T00:33:57.875Z,28.73
2019-05-16T00:36:28.528Z,30.72
2019-05-16T00:38:59.071Z,27.13
2019-05-16T00:41:29.711Z,27.48
2019-05-16T00:44:00.224Z,31.00
2019-05-16T00:46:30.937Z,30.08
2019-05-16T00:49:01.576Z,28.57
2019-05-16T00:51:32.927Z,28.75
2019-05-16T00:54:03.512Z,37.45
2019-05-16T00:56:35.159Z,30.82
2019-05-16T00:59:07.887Z,26.42
2019-05-16T01:01:38.900Z,25.95
2019-05-16T01:04:09.596Z,25.82
2019-05-16T01:06:40.120Z,32.20
2019-05-16T01:09:11.687Z,29.45
2019-05-16T01:11:44.230Z,27.87
2019-05-16T01:14:14.832Z,33.00
2019-05-16T01:16:45.298Z,29.05
2019-05-16T01:19:15.887Z,32.70
2019-05-16T01:21:48.340Z,28.07
2019-05-16T01:24:18.909Z,31.48
2019-05-16T01:26:49.612Z,29.70
2019-05-16T01:29:20.154Z,29.55
2019-05-16T01:31:50.625Z,29.85
2019-05-16T01:34:21.144Z,29.48
2019-05-16T01:36:51.942Z,32.03
2019-05-16T01:39:22.580Z,28.12
2019-05-16T01:41:53.106Z,30.50
2019-05-16T01:44:23.702Z,29.77
2019-05-16T01:46:54.413Z,28.12
2019-05-16T01:49:25.134Z,29.87
2019-05-16T01:51:57.740Z,29.80
2019-05-16T01:54:28.298Z,30.02
2019-05-16T01:57:00.043Z,32.23
2019-05-16T01:59:30.527Z,34.35
2019-05-16T02:02:01.576Z,28.75
2019-05-16T02:04:32.184Z,31.02
2019-05-16T02:07:02.818Z,31.50
2019-05-16T02:09:33.416Z,29.55
2019-05-16T02:12:04.050Z,27.80
2019-05-16T02:14:34.606Z,33.10
2019-05-16T02:17:05.390Z,35.28
2019-05-16T02:19:38.352Z,32.40
2019-05-16T02:22:08.893Z,32.23
2019-05-16T02:24:39.640Z,30.35
2019-05-16T02:27:10.155Z,35.63
2019-05-16T02:29:40.712Z,34.25
2019-05-16T02:32:11.787Z,30.80
2019-05-16T02:34:43.311Z,31.35
2019-05-16T02:37:24.501Z,31.93
2019-05-16T02:39:46.209Z,31.73
2019-05-16T02:42:16.830Z,31.45
2019-05-16T02:44:47.441Z,33.50
2019-05-16T02:47:20.725Z,31.15
2019-05-16T02:49:50.614Z,34.30
2019-05-16T02:52:21.702Z,31.05
2019-05-16T02:54:52.491Z,31.70
2019-05-16T02:57:23.054Z,32.73
2019-05-16T02:59:53.575Z,36.00
2019-05-16T03:02:24.181Z,33.13
2019-05-16T03:04:54.754Z,37.28
2019-05-16T03:07:37.627Z,35.13
2019-05-16T03:10:01.625Z,33.15
2019-05-16T03:12:33.020Z,36.05
2019-05-16T03:15:04.343Z,37.42
2019-05-16T03:17:36.156Z,33.28
2019-05-16T03:20:10.538Z,40.48
2019-05-16T03:22:41.185Z,37.10
2019-05-16T03:25:12.880Z,37.15
2019-05-16T03:27:43.591Z,38.88
2019-05-16T03:30:16.590Z,39.58
2019-05-16T03:32:46.829Z,36.98
2019-05-16T03:35:19.362Z,39.48
2019-05-16T03:37:55.808Z,36.42
2019-05-16T03:40:27.225Z,39.78
2019-05-16T03:43:01.022Z,38.38
2019-05-16T03:45:31.775Z,38.70
2019-05-16T03:48:03.372Z,40.15
2019-05-16T03:50:34.298Z,40.80
2019-05-16T03:53:04.902Z,42.03
2019-05-16T03:55:35.512Z,38.50
2019-05-16T03:58:06.158Z,45.95
2019-05-16T04:00:55.756Z,44.40
2019-05-16T04:03:28.886Z,41.37
2019-05-16T04:06:01.191Z,39.50
2019-05-16T04:08:31.290Z,40.33
2019-05-16T04:11:01.907Z,43.05
2019-05-16T04:13:32.877Z,40.30
2019-05-16T04:16:03.430Z,42.40
2019-05-16T04:18:34.182Z,45.23
2019-05-16T04:21:04.967Z,44.40
2019-05-16T04:23:35.489Z,44.48
2019-05-16T04:26:06.026Z,48.25
2019-05-16T04:28:36.575Z,45.55
2019-05-16T04:31:07.092Z,45.70
2019-05-16T04:33:37.584Z,44.95
2019-05-16T04:36:10.804Z,47.40
2019-05-16T04:38:46.002Z,47.45
2019-05-16T04:41:12.402Z,46.53
2019-05-16T04:43:42.969Z,47.70
2019-05-16T04:46:13.471Z,50.23
2019-05-16T04:48:44.074Z,47.10
2019-05-16T04:51:14.578Z,44.35
2019-05-16T04:53:45.074Z,47.48
2019-05-16T04:56:15.708Z,43.42
2019-05-16T04:58:46.311Z,48.30
2019-05-16T05:01:16.843Z,46.40
2019-05-16T05:04:02.097Z,46.68
2019-05-16T05:06:20.792Z,49.40
2019-05-16T05:08:58.429Z,54.42
2019-05-16T05:11:24.652Z,51.20
2019-05-16T05:13:55.158Z,49.63
2019-05-16T05:16:25.714Z,49.53
2019-05-16T05:18:56.266Z,42.20
2019-05-16T05:21:26.844Z,48.65
2019-05-16T05:23:59.949Z,49.42
2019-05-16T05:26:30.606Z,43.20
2019-05-16T05:29:01.562Z,45.75
2019-05-16T05:31:34.998Z,46.28
2019-05-16T05:34:13.913Z,41.77
2019-05-16T05:36:44.480Z,40.48
2019-05-16T05:39:15.685Z,40.88
2019-05-16T05:41:46.296Z,36.98
2019-05-16T05:44:16.817Z,33.02
2019-05-16T05:46:47.457Z,31.60
2019-05-16T05:49:20.346Z,30.62
2019-05-16T05:51:50.247Z,29.72
2019-05-16T05:54:20.782Z,32.93
2019-05-16T05:56:51.723Z,28.60
2019-05-16T05:59:22.269Z,27.67
2019-05-16T06:01:53.143Z,30.05
2019-05-16T06:04:23.909Z,28.55
2019-05-16T06:06:54.530Z,29.23
2019-05-16T06:09:29.051Z,31.10
2019-05-16T06:11:57.171Z,32.50
2019-05-16T06:14:30.445Z,27.35
2019-05-16T06:17:00.434Z,30.97
2019-05-16T06:19:31.093Z,27.45
2019-05-16T06:22:01.740Z,27.62
2019-05-16T06:24:32.502Z,29.80
2019-05-16T06:27:03.007Z,27.82
2019-05-16T06:29:33.581Z,25.02
2019-05-16T06:32:04.128Z,28.77
2019-05-16T06:34:34.647Z,28.10
2019-05-16T06:37:05.515Z,30.02
2019-05-16T06:39:41.995Z,25.75
2019-05-16T06:42:09.870Z,28.30
2019-05-16T06:44:40.561Z,26.87
2019-05-16T06:47:19.384Z,27.27
2019-05-16T06:49:46.977Z,27.98
2019-05-16T06:52:19.612Z,29.25
2019-05-16T06:54:50.416Z,28.62
2019-05-16T06:57:21.839Z,27.22
2019-05-16T06:59:52.546Z,25.40
2019-05-16T07:02:29.872Z,24.47
2019-05-16T07:04:55.398Z,28.47
2019-05-16T07:07:25.907Z,25.05
2019-05-16T07:10:00.751Z,24.40
2019-05-16T07:12:31.481Z,25.05
2019-05-16T07:15:02.109Z,27.22
2019-05-16T07:17:33.950Z,27.05
2019-05-16T07:20:04.790Z,29.27
2019-05-16T07:22:35.305Z,24.67
2019-05-16T07:25:06.248Z,22.98
2019-05-16T07:27:40.028Z,29.30
2019-05-16T07:30:11.764Z,29.57
2019-05-16T07:32:42.365Z,27.48
2019-05-16T07:35:12.956Z,27.10
2019-05-16T07:37:43.594Z,34.90
2019-05-16T07:40:22.341Z,27.58
2019-05-16T07:42:47.892Z,31.48
2019-05-16T07:45:20.355Z,65.75
2019-05-16T07:47:51.230Z,31.40
2019-05-16T07:50:21.731Z,32.53
2019-05-16T07:52:52.247Z,27.52
2019-05-16T07:55:22.818Z,40.83
2019-05-16T07:57:53.462Z,32.85
2019-05-16T08:00:43.468Z,30.57
2019-05-16T08:02:56.659Z,27.50
2019-05-16T08:05:29.853Z,30.00
2019-05-16T08:08:00.071Z,27.62
2019-05-16T08:10:37.883Z,43.30
2019-05-16T08:13:03.571Z,29.52
2019-05-16T08:15:34.340Z,24.57
2019-05-16T08:18:05.122Z,28.12
2019-05-16T08:20:35.705Z,35.08
2019-05-16T08:23:06.262Z,29.98
2019-05-16T08:25:40.632Z,27.87
2019-05-16T08:28:11.689Z,29.00
2019-05-16T08:30:42.447Z,29.90
2019-05-16T08:33:13.707Z,31.35
2019-05-16T08:35:44.579Z,29.02
2019-05-16T08:38:15.175Z,25.80
2019-05-16T08:41:04.352Z,27.70
2019-05-16T08:43:21.353Z,27.37
2019-05-16T08:45:51.484Z,27.93
2019-05-16T08:50:55.171Z,27.37
2019-05-16T08:53:25.996Z,24.27
2019-05-16T08:55:56.587Z,21.87
2019-05-16T08:58:27.325Z,20.65
2019-05-16T09:01:01.939Z,24.50
2019-05-16T09:03:32.278Z,24.57
2019-05-16T09:06:03.275Z,21.95
2019-05-16T09:08:33.969Z,20.80
2019-05-16T09:10:31.814Z,27.32
2019-05-16T09:11:24.940Z,24.25
2019-05-16T09:13:37.080Z,19.42
2019-05-16T09:16:07.986Z,23.98
2019-05-16T09:18:45.847Z,20.85
2019-05-16T09:21:11.655Z,20.62
2019-05-16T09:23:42.202Z,20.17
2019-05-16T09:26:16.141Z,19.32
2019-05-16T09:28:47.954Z,19.67
2019-05-16T09:31:24.005Z,18.95
2019-05-16T09:33:49.062Z,16.77
2019-05-16T09:36:19.679Z,20.57
2019-05-16T09:38:50.191Z,16.60
2019-05-16T09:41:20.702Z,24.63
2019-05-16T09:43:51.253Z,21.57
2019-05-16T09:46:21.738Z,17.87
2019-05-16T09:49:10.078Z,19.17
2019-05-16T09:51:26.908Z,20.20
2019-05-16T09:53:56.891Z,22.58
2019-05-16T09:56:27.549Z,20.70
2019-05-16T09:58:58.145Z,19.52
2019-05-16T10:01:28.678Z,19.32
2019-05-16T10:03:59.276Z,17.05
2019-05-16T10:06:29.772Z,23.50
2019-05-16T10:09:00.436Z,16.52
2019-05-16T10:11:32.749Z,29.00
2019-05-16T10:14:03.372Z,15.70
2019-05-16T10:16:36.519Z,16.93
2019-05-16T10:19:07.471Z,15.63
2019-05-16T10:21:39.357Z,20.17
2019-05-16T10:24:09.822Z,17.30
2019-05-16T10:26:40.413Z,20.77
2019-05-16T10:29:11.139Z,20.90
2019-05-16T10:31:49.309Z,15.93
2019-05-16T10:34:13.900Z,17.95
2019-05-16T10:36:47.009Z,16.12
2019-05-16T10:39:16.722Z,13.35
2019-05-16T10:41:47.376Z,14.98
2019-05-16T10:44:17.908Z,15.05
2019-05-16T10:46:48.543Z,19.02
2019-05-16T10:49:33.205Z,15.43
2019-05-16T10:51:51.147Z,17.05
2019-05-16T10:54:21.831Z,21.23
2019-05-16T10:56:52.664Z,13.72
2019-05-16T10:59:54.620Z,17.05
2019-05-16T11:01:56.342Z,16.62
2019-05-16T11:04:37.179Z,19.70
2019-05-16T11:07:01.388Z,18.70
2019-05-16T11:09:31.942Z,17.10
2019-05-16T11:12:02.436Z,19.15
2019-05-16T11:14:32.969Z,16.52
2019-05-16T11:17:03.464Z,17.82
2019-05-16T11:19:33.990Z,15.85
2019-05-16T11:22:04.573Z,18.90
2019-05-16T11:24:37.547Z,18.90
2019-05-16T11:27:07.628Z,16.17
2019-05-16T11:29:38.223Z,16.27
2019-05-16T11:32:09.172Z,18.50
2019-05-16T11:34:39.744Z,17.45
2019-05-16T11:37:09.681Z,17.80
2019-05-16T11:39:40.029Z,15.43
2019-05-16T11:42:10.535Z,15.83
2019-05-16T11:44:40.994Z,15.55
2019-05-16T11:47:11.463Z,15.43
2019-05-16T11:49:41.992Z,21.10
2019-05-16T11:52:12.445Z,16.35
2019-05-16T11:54:42.984Z,13.80
2019-05-16T11:57:13.453Z,16.90
2019-05-16T11:59:44.036Z,17.15
2019-05-16T12:02:17.516Z,15.78
2019-05-16T12:04:47.510Z,16.87
2019-05-16T12:07:19.240Z,17.55
2019-05-16T12:09:55.136Z,14.43
2019-05-16T12:12:23.099Z,19.67
2019-05-16T12:14:56.000Z,14.80
2019-05-16T12:17:27.950Z,18.48
2019-05-16T12:19:58.009Z,15.40
2019-05-16T12:22:28.516Z,16.93
2019-05-16T12:24:59.159Z,15.03
2019-05-16T12:27:32.485Z,17.30
2019-05-16T12:30:01.930Z,16.37
2019-05-16T12:32:32.882Z,16.75
2019-05-16T12:35:03.559Z,16.62
2019-05-16T12:37:36.956Z,14.60
2019-05-16T12:40:06.743Z,20.27
2019-05-16T12:42:37.280Z,24.50
2019-05-16T12:45:08.590Z,17.10
2019-05-16T12:47:39.106Z,17.27
2019-05-16T12:50:10.201Z,17.25
2019-05-16T12:52:40.762Z,16.48
2019-05-16T12:55:12.760Z,17.85
2019-05-16T12:57:43.323Z,16.77
2019-05-16T13:00:15.755Z,19.52
2019-05-16T13:02:47.490Z,15.78
2019-05-16T13:05:18.863Z,15.55
2019-05-16T13:07:49.358Z,17.07
2019-05-16T13:10:20.787Z,16.17
2019-05-16T13:12:51.280Z,16.05
2019-05-16T13:15:21.872Z,18.42
2019-05-16T13:18:04.507Z,17.02
2019-05-16T13:20:37.576Z,17.23
2019-05-16T13:23:14.411Z,16.02
2019-05-16T13:25:39.308Z,17.05
2019-05-16T13:28:09.776Z,16.17
2019-05-16T13:30:40.435Z,22.32
2019-05-16T13:33:11.028Z,16.10
2019-05-16T13:35:41.539Z,19.35
2019-05-16T13:38:12.087Z,16.17
2019-05-16T13:40:42.565Z,18.48
2019-05-16T13:43:13.272Z,16.75
2019-05-16T13:45:43.739Z,17.17
2019-05-16T13:48:14.229Z,20.88
2019-05-16T13:50:47.150Z,16.07
2019-05-16T13:53:17.037Z,16.65
2019-05-16T13:55:47.587Z,17.52
2019-05-16T13:58:18.089Z,20.75
2019-05-16T14:00:48.654Z,20.08
2019-05-16T14:03:19.222Z,19.77
2019-05-16T14:05:49.755Z,18.40
2019-05-16T14:08:20.299Z,18.07
2019-05-16T14:10:50.853Z,19.50
2019-05-16T14:13:21.311Z,18.55
2019-05-16T14:15:51.921Z,21.50
2019-05-16T14:18:22.400Z,22.90
2019-05-16T14:20:52.878Z,23.67
2019-05-16T14:23:23.350Z,21.55
2019-05-16T14:25:53.881Z,19.40
2019-05-16T14:28:24.384Z,22.80
2019-05-16T14:30:57.069Z,19.32
2019-05-16T14:33:27.616Z,20.55
2019-05-16T14:35:59.274Z,19.10
2019-05-16T14:38:29.813Z,18.87
2019-05-16T14:41:00.720Z,16.95
2019-05-16T14:43:31.350Z,21.12
2019-05-16T14:46:01.913Z,20.60
2019-05-16T14:48:32.446Z,19.37
2019-05-16T14:51:03.168Z,17.12
2019-05-16T14:53:33.734Z,20.27
2019-05-16T14:56:07.124Z,17.17
2019-05-16T14:58:37.783Z,19.15
2019-05-16T15:01:08.616Z,18.27
2019-05-16T15:03:39.128Z,17.98
2019-05-16T15:06:09.604Z,23.07
2019-05-16T15:08:40.402Z,21.68
2019-05-16T15:11:10.864Z,21.55
2019-05-16T15:13:41.554Z,18.50
2019-05-16T15:16:12.048Z,22.65
2019-05-16T15:18:42.590Z,16.67
2019-05-16T15:21:13.261Z,20.97
2019-05-16T15:23:43.800Z,22.90
2019-05-16T15:26:14.324Z,23.80
2019-05-16T15:28:47.988Z,21.95
2019-05-16T15:31:16.964Z,26.82
2019-05-16T15:33:47.671Z,20.92
2019-05-16T15:36:18.366Z,21.02
2019-05-16T15:38:48.809Z,23.98
2019-05-16T15:41:19.296Z,23.18
2019-05-16T15:43:50.090Z,24.10
2019-05-16T15:46:20.985Z,23.30
2019-05-16T15:48:51.706Z,22.07
2019-05-16T15:51:23.544Z,20.82
2019-05-16T15:53:57.091Z,23.73
2019-05-16T15:56:27.233Z,18.55
2019-05-16T15:58:58.816Z,17.87
2019-05-16T16:01:28.879Z,17.48
2019-05-16T16:03:59.458Z,25.70
2019-05-16T16:06:30.079Z,20.48
2019-05-16T16:09:00.746Z,23.80
2019-05-16T16:11:32.891Z,23.00
2019-05-16T16:14:03.528Z,20.55
2019-05-16T16:16:34.191Z,22.02
2019-05-16T16:19:06.609Z,21.95
2019-05-16T16:21:37.958Z,26.02
2019-05-16T16:24:09.269Z,24.45
2019-05-16T16:26:39.912Z,25.77
2019-05-16T16:29:10.603Z,25.60
2019-05-16T16:31:41.171Z,27.50
2019-05-16T16:34:11.682Z,26.52
2019-05-16T16:36:42.746Z,29.48
2019-05-16T16:39:13.282Z,30.70
2019-05-16T16:41:43.848Z,33.38
2019-05-16T16:44:17.169Z,29.20
2019-05-16T16:46:46.835Z,28.83
2019-05-16T16:49:17.581Z,29.55
2019-05-16T16:51:48.276Z,32.28
2019-05-16T16:54:18.978Z,35.38
2019-05-16T16:56:49.561Z,31.33
2019-05-16T16:59:20.223Z,31.30
2019-05-16T17:01:50.775Z,30.00
2019-05-16T17:04:21.331Z,26.68
2019-05-16T17:06:51.950Z,28.40
2019-05-16T17:09:22.423Z,27.15
2019-05-16T17:11:53.386Z,28.12
2019-05-16T17:14:25.972Z,33.95
2019-05-16T17:16:57.502Z,28.65
2019-05-16T17:19:28.205Z,26.17
2019-05-16T17:22:13.026Z,25.32
2019-05-16T17:24:31.071Z,24.85
2019-05-16T17:27:07.828Z,25.02
2019-05-16T17:29:37.182Z,23.18
2019-05-16T17:32:10.072Z,30.75
2019-05-16T17:34:42.305Z,24.90
2019-05-16T17:37:30.748Z,23.47
2019-05-16T17:40:37.958Z,24.07
2019-05-16T17:44:20.876Z,23.70
2019-05-16T17:47:46.439Z,19.98
2019-05-16T17:50:37.079Z,21.42
2019-05-16T17:53:07.377Z,23.50
2019-05-16T17:55:39.223Z,21.10
2019-05-16T17:58:09.935Z,19.15
2019-05-16T18:00:41.524Z,21.57
2019-05-16T18:03:12.192Z,20.97
2019-05-16T18:05:42.766Z,25.10
2019-05-16T18:08:14.560Z,25.40
2019-05-16T18:10:47.075Z,24.87
2019-05-16T18:13:17.289Z,23.87
2019-05-16T18:15:47.801Z,26.75
2019-05-16T18:18:18.454Z,23.57
2019-05-16T18:20:58.056Z,24.15
2019-05-16T18:23:21.286Z,25.43
2019-05-16T18:25:51.905Z,25.52
2019-05-16T18:28:22.791Z,24.37
2019-05-16T18:30:53.405Z,25.37
2019-05-16T18:33:23.877Z,25.80
2019-05-16T18:35:54.597Z,24.87
2019-05-16T18:38:26.509Z,25.77
2019-05-16T18:40:57.174Z,22.70
2019-05-16T18:43:27.812Z,22.82
2019-05-16T18:45:58.295Z,25.12
2019-05-16T18:48:28.919Z,25.00
2019-05-16T18:50:59.836Z,24.98
2019-05-16T18:53:30.909Z,21.82
2019-05-16T18:56:01.585Z,25.95
2019-05-16T18:58:32.202Z,25.35
2019-05-16T19:01:02.835Z,25.27
2019-05-16T19:03:33.450Z,27.40
2019-05-16T19:06:04.113Z,24.72
2019-05-16T19:08:36.423Z,28.47
2019-05-16T19:11:07.601Z,25.65
2019-05-16T19:13:38.392Z,28.38
2019-05-16T19:16:08.981Z,29.82
2019-05-16T19:18:39.791Z,25.55
2019-05-16T19:21:10.363Z,30.52
2019-05-16T19:23:40.934Z,27.20
2019-05-16T19:26:11.542Z,24.30
2019-05-16T19:28:42.123Z,25.95
2019-05-16T19:31:12.782Z,28.73
2019-05-16T19:33:43.322Z,30.37
2019-05-16T19:36:13.900Z,29.37
2019-05-16T19:38:46.456Z,26.65
2019-05-16T19:41:16.638Z,27.45
2019-05-16T19:43:47.226Z,25.65
2019-05-16T19:46:17.783Z,23.77
2019-05-16T19:48:48.710Z,24.70
2019-05-16T19:51:19.205Z,27.42
2019-05-16T19:53:49.797Z,29.65
2019-05-16T19:56:20.357Z,25.92
2019-05-16T19:58:50.959Z,29.00
2019-05-16T20:01:21.520Z,25.95
2019-05-16T20:03:52.129Z,31.95
2019-05-16T20:06:22.647Z,24.87
2019-05-16T20:08:53.305Z,24.50
2019-05-16T20:11:23.811Z,25.40
2019-05-16T20:13:56.677Z,26.45
2019-05-16T20:16:27.359Z,25.30
2019-05-16T20:18:58.107Z,24.85
2019-05-16T20:21:28.625Z,25.00
2019-05-16T20:24:00.427Z,23.65
2019-05-16T20:26:30.957Z,24.70
2019-05-16T20:29:01.725Z,23.50
2019-05-16T20:31:32.407Z,23.20
2019-05-16T20:34:03.183Z,24.72
2019-05-16T20:36:34.214Z,25.27
2019-05-16T20:39:08.371Z,26.17
2019-05-16T20:41:38.836Z,24.20
2019-05-16T20:44:09.544Z,26.48
2019-05-16T20:46:40.231Z,24.92
2019-05-16T20:49:11.244Z,24.65
2019-05-16T20:51:41.169Z,24.87
2019-05-16T20:54:11.729Z,27.73
2019-05-16T20:56:42.393Z,27.22
2019-05-16T20:59:13.053Z,23.15
2019-05-16T21:01:43.811Z,24.57
2019-05-16T21:04:14.373Z,22.07
2019-05-16T21:06:57.468Z,24.40
2019-05-16T21:09:17.155Z,27.27
2019-05-16T21:11:50.115Z,25.08
2019-05-16T21:14:19.947Z,24.80
2019-05-16T21:16:50.523Z,26.48
2019-05-16T21:19:22.363Z,25.32
2019-05-16T21:21:52.911Z,20.55
2019-05-16T21:24:23.659Z,23.38
2019-05-16T21:26:54.201Z,24.30
2019-05-16T21:29:47.193Z,26.97
2019-05-16T21:32:17.822Z,21.45
2019-05-16T21:35:00.118Z,22.80
2019-05-16T21:37:30.803Z,24.30
2019-05-16T21:40:01.434Z,25.23
2019-05-16T21:42:33.167Z,20.70
2019-05-16T21:45:03.704Z,21.30
2019-05-16T21:47:36.929Z,24.23
2019-05-16T21:50:09.284Z,22.85
2019-05-16T21:52:39.916Z,26.10
2019-05-16T21:55:10.590Z,21.97
2019-05-16T21:57:41.221Z,24.70
2019-05-16T22:00:21.559Z,25.20
2019-05-16T22:02:54.076Z,28.20
2019-05-16T22:05:24.992Z,25.52
2019-05-16T22:07:56.750Z,26.75
2019-05-16T22:10:27.610Z,26.37
2019-05-16T22:12:59.990Z,29.25
2019-05-16T22:15:31.095Z,31.37
2019-05-16T22:18:01.992Z,30.55
2019-05-16T22:20:32.922Z,27.10
2019-05-16T22:23:03.561Z,34.23
2019-05-16T22:25:34.159Z,31.20
2019-05-16T22:28:07.241Z,28.07
2019-05-16T22:30:37.407Z,31.62
2019-05-16T22:33:09.262Z,32.38
2019-05-16T22:35:39.938Z,31.10
2019-05-16T22:38:12.317Z,27.02
2019-05-16T22:40:42.934Z,30.27
2019-05-16T22:43:13.626Z,36.35
2019-05-16T22:45:46.656Z,33.80
2019-05-16T22:48:17.238Z,25.75
2019-05-16T22:50:48.111Z,28.20
2019-05-16T22:53:18.676Z,28.87
2019-05-16T22:55:49.413Z,28.67
2019-05-16T22:58:19.993Z,34.27
2019-05-16T23:00:50.874Z,31.30
2019-05-16T23:03:21.560Z,30.65
2019-05-16T23:05:52.219Z,30.15
2019-05-16T23:08:22.829Z,33.30
2019-05-16T23:10:53.412Z,30.25
2019-05-16T23:13:23.915Z,28.32
2019-05-16T23:15:54.436Z,31.90
2019-05-16T23:18:26.708Z,29.15
2019-05-16T23:20:57.126Z,30.10
2019-05-16T23:23:27.818Z,29.67
2019-05-16T23:25:58.374Z,29.50
2019-05-16T23:28:29.029Z,25.68
2019-05-16T23:30:59.567Z,27.75
2019-05-16T23:33:30.109Z,23.15
2019-05-16T23:36:00.718Z,26.30
2019-05-16T23:38:31.258Z,24.00
2019-05-16T23:41:01.919Z,23.35
2019-05-16T23:43:32.610Z,24.23
2019-05-16T23:46:03.177Z,21.35
2019-05-16T23:48:33.712Z,24.25
2019-05-16T23:51:04.796Z,23.40
2019-05-16T23:53:37.081Z,20.48
2019-05-16T23:56:07.709Z,29.25
2019-05-16T23:58:44.247Z,24.12
